sensor_id;sensor_type;location;lat;lon;timestamp;temperature;humidity
5415;DHT22;2730;51.512;7.504;2023-02-20T00:00:16;5.80;99.90
5415;DHT22;2730;51.512;7.504;2023-02-20T00:02:46;5.70;99.90
5415;DHT22;2730;51.512;7.504;2023-02-20T00:05:14;5.80;99.90
5415;DHT22;2730;51.512;7.504;2023-02-20T00:07:41;5.80;99.90
5415;DHT22;2730;51.512;7.504;2023-02-20T00:10:08;5.80;99.90
5415;DHT22;2730;51.512;7.504;2023-02-20T00:12:35;5.70;99.90
5415;DHT22;2730;51.512;7.504;2023-02-20T00:15:02;5.70;99.90
5415;DHT22;2730;51.512;7.504;2023-02-20T00:17:29;5.60;99.90
5415;DHT22;2730;51.512;7.504;2023-02-20T00:19:57;5.60;99.90
5415;DHT22;2730;51.512;7.504;2023-02-20T00:22:25;5.60;99.90
5415;DHT22;2730;51.512;7.504;2023-02-20T00:24:52;5.60;99.90
5415;DHT22;2730;51.512;7.504;2023-02-20T00:27:19;5.50;99.90
5415;DHT22;2730;51.512;7.504;2023-02-20T00:29:46;5.50;99.90
5415;DHT22;2730;51.512;7.504;2023-02-20T00:32:13;5.50;99.90
5415;DHT22;2730;51.512;7.504;2023-02-20T00:34:40;5.50;99.90
5415;DHT22;2730;51.512;7.504;2023-02-20T00:37:08;5.50;99.90
5415;DHT22;2730;51.512;7.504;2023-02-20T00:39:35;5.60;99.90
5415;DHT22;2730;51.512;7.504;2023-02-20T00:42:02;5.60;99.90
5415;DHT22;2730;51.512;7.504;2023-02-20T00:44:28;5.70;99.90
5415;DHT22;2730;51.512;7.504;2023-02-20T00:46:55;5.70;99.90
5415;DHT22;2730;51.512;7.504;2023-02-20T00:49:22;5.70;99.90
5415;DHT22;2730;51.512;7.504;2023-02-20T00:51:49;5.70;99.90
5415;DHT22;2730;51.512;7.504;2023-02-20T00:54:17;5.80;99.90
5415;DHT22;2730;51.512;7.504;2023-02-20T00:56:44;5.80;99.90
5415;DHT22;2730;51.512;7.504;2023-02-20T00:59:10;5.90;99.90
5415;DHT22;2730;51.512;7.504;2023-02-20T01:01:37;5.90;99.90
5415;DHT22;2730;51.512;7.504;2023-02-20T01:04:04;5.90;99.90
5415;DHT22;2730;51.512;7.504;2023-02-20T01:06:31;5.90;99.90
5415;DHT22;2730;51.512;7.504;2023-02-20T01:08:58;5.80;99.90
5415;DHT22;2730;51.512;7.504;2023-02-20T01:11:26;5.80;99.90
5415;DHT22;2730;51.512;7.504;2023-02-20T01:13:53;5.80;99.90
5415;DHT22;2730;51.512;7.504;2023-02-20T01:16:19;5.90;99.90
5415;DHT22;2730;51.512;7.504;2023-02-20T01:18:49;5.90;99.90
5415;DHT22;2730;51.512;7.504;2023-02-20T01:21:16;5.90;99.90
5415;DHT22;2730;51.512;7.504;2023-02-20T01:23:43;5.90;99.90
5415;DHT22;2730;51.512;7.504;2023-02-20T01:26:10;5.90;99.90
5415;DHT22;2730;51.512;7.504;2023-02-20T01:28:38;5.90;99.90
5415;DHT22;2730;51.512;7.504;2023-02-20T01:31:06;5.90;99.90
5415;DHT22;2730;51.512;7.504;2023-02-20T01:33:33;6.00;99.90
5415;DHT22;2730;51.512;7.504;2023-02-20T01:35:59;5.90;99.90
5415;DHT22;2730;51.512;7.504;2023-02-20T01:38:26;5.90;99.90
5415;DHT22;2730;51.512;7.504;2023-02-20T01:40:53;5.90;99.90
5415;DHT22;2730;51.512;7.504;2023-02-20T01:43:20;6.00;99.90
5415;DHT22;2730;51.512;7.504;2023-02-20T01:45:48;6.00;99.90
5415;DHT22;2730;51.512;7.504;2023-02-20T01:48:19;6.10;99.90
5415;DHT22;2730;51.512;7.504;2023-02-20T01:50:47;6.10;99.90
5415;DHT22;2730;51.512;7.504;2023-02-20T01:53:19;6.10;99.90
5415;DHT22;2730;51.512;7.504;2023-02-20T01:55:48;6.10;99.90
5415;DHT22;2730;51.512;7.504;2023-02-20T01:58:18;6.20;99.90
5415;DHT22;2730;51.512;7.504;2023-02-20T02:00:48;6.20;99.90
5415;DHT22;2730;51.512;7.504;2023-02-20T02:03:17;6.20;99.90
5415;DHT22;2730;51.512;7.504;2023-02-20T02:05:47;6.30;99.90
5415;DHT22;2730;51.512;7.504;2023-02-20T02:08:15;6.30;99.90
5415;DHT22;2730;51.512;7.504;2023-02-20T02:10:49;6.30;99.90
5415;DHT22;2730;51.512;7.504;2023-02-20T02:13:17;6.30;99.90
5415;DHT22;2730;51.512;7.504;2023-02-20T02:15:44;6.40;99.90
5415;DHT22;2730;51.512;7.504;2023-02-20T02:18:33;6.30;99.90
5415;DHT22;2730;51.512;7.504;2023-02-20T02:21:48;6.30;99.90
5415;DHT22;2730;51.512;7.504;2023-02-20T02:24:51;6.30;99.90
5415;DHT22;2730;51.512;7.504;2023-02-20T02:28:07;6.30;99.90
5415;DHT22;2730;51.512;7.504;2023-02-20T02:36:50;6.40;99.90
5415;DHT22;2730;51.512;7.504;2023-02-20T02:39:24;6.40;99.90
5415;DHT22;2730;51.512;7.504;2023-02-20T02:41:57;6.30;99.90
5415;DHT22;2730;51.512;7.504;2023-02-20T02:44:30;6.20;99.90
5415;DHT22;2730;51.512;7.504;2023-02-20T02:47:01;6.20;99.90
5415;DHT22;2730;51.512;7.504;2023-02-20T02:49:33;6.20;99.90
5415;DHT22;2730;51.512;7.504;2023-02-20T02:52:04;6.20;99.90
5415;DHT22;2730;51.512;7.504;2023-02-20T02:54:31;6.10;99.90
5415;DHT22;2730;51.512;7.504;2023-02-20T02:57:19;6.10;99.90
5415;DHT22;2730;51.512;7.504;2023-02-20T02:59:49;6.10;99.90
5415;DHT22;2730;51.512;7.504;2023-02-20T03:02:17;6.10;99.90
5415;DHT22;2730;51.512;7.504;2023-02-20T03:04:46;6.10;99.90
5415;DHT22;2730;51.512;7.504;2023-02-20T03:07:16;6.10;99.90
5415;DHT22;2730;51.512;7.504;2023-02-20T03:09:46;6.10;99.90
5415;DHT22;2730;51.512;7.504;2023-02-20T03:12:16;6.20;99.90
5415;DHT22;2730;51.512;7.504;2023-02-20T03:14:47;6.10;99.90
5415;DHT22;2730;51.512;7.504;2023-02-20T03:17:37;6.10;99.90
5415;DHT22;2730;51.512;7.504;2023-02-20T03:20:08;6.00;99.90
5415;DHT22;2730;51.512;7.504;2023-02-20T03:22:40;6.10;99.90
5415;DHT22;2730;51.512;7.504;2023-02-20T03:25:12;6.10;99.90
5415;DHT22;2730;51.512;7.504;2023-02-20T03:27:43;6.00;99.90
5415;DHT22;2730;51.512;7.504;2023-02-20T03:30:16;6.00;99.90
5415;DHT22;2730;51.512;7.504;2023-02-20T03:32:45;6.10;99.90
5415;DHT22;2730;51.512;7.504;2023-02-20T03:35:31;6.00;99.90
5415;DHT22;2730;51.512;7.504;2023-02-20T03:38:20;6.10;99.90
5415;DHT22;2730;51.512;7.504;2023-02-20T03:41:06;6.10;99.90
5415;DHT22;2730;51.512;7.504;2023-02-20T03:43:52;6.10;99.90
5415;DHT22;2730;51.512;7.504;2023-02-20T03:46:21;6.20;99.90
5415;DHT22;2730;51.512;7.504;2023-02-20T03:48:53;6.20;99.90
5415;DHT22;2730;51.512;7.504;2023-02-20T03:51:22;6.20;99.90
5415;DHT22;2730;51.512;7.504;2023-02-20T03:53:51;6.20;99.90
5415;DHT22;2730;51.512;7.504;2023-02-20T03:56:27;6.20;99.90
5415;DHT22;2730;51.512;7.504;2023-02-20T03:59:00;6.20;99.90
5415;DHT22;2730;51.512;7.504;2023-02-20T04:01:27;6.20;99.90
5415;DHT22;2730;51.512;7.504;2023-02-20T04:03:56;6.20;99.90
5415;DHT22;2730;51.512;7.504;2023-02-20T04:06:27;6.20;99.90
5415;DHT22;2730;51.512;7.504;2023-02-20T04:08:59;6.10;99.90
5415;DHT22;2730;51.512;7.504;2023-02-20T04:11:32;6.10;99.90
5415;DHT22;2730;51.512;7.504;2023-02-20T04:14:01;6.10;99.90
5415;DHT22;2730;51.512;7.504;2023-02-20T04:16:31;6.10;99.90
5415;DHT22;2730;51.512;7.504;2023-02-20T04:19:00;6.10;99.90
5415;DHT22;2730;51.512;7.504;2023-02-20T04:21:33;6.10;99.90
5415;DHT22;2730;51.512;7.504;2023-02-20T04:24:06;6.00;99.90
5415;DHT22;2730;51.512;7.504;2023-02-20T04:26:34;6.10;99.90
5415;DHT22;2730;51.512;7.504;2023-02-20T04:29:02;6.10;99.90
5415;DHT22;2730;51.512;7.504;2023-02-20T04:31:29;6.10;99.90
5415;DHT22;2730;51.512;7.504;2023-02-20T04:33:56;6.10;99.90
5415;DHT22;2730;51.512;7.504;2023-02-20T04:36:23;6.10;99.90
5415;DHT22;2730;51.512;7.504;2023-02-20T04:38:50;6.00;99.90
5415;DHT22;2730;51.512;7.504;2023-02-20T04:41:18;6.00;99.90
5415;DHT22;2730;51.512;7.504;2023-02-20T04:43:45;6.00;99.90
5415;DHT22;2730;51.512;7.504;2023-02-20T04:46:12;6.00;99.90
5415;DHT22;2730;51.512;7.504;2023-02-20T04:48:39;6.00;99.90
5415;DHT22;2730;51.512;7.504;2023-02-20T04:51:05;5.90;99.90
5415;DHT22;2730;51.512;7.504;2023-02-20T04:53:32;5.90;99.90
5415;DHT22;2730;51.512;7.504;2023-02-20T04:55:59;6.00;99.90
5415;DHT22;2730;51.512;7.504;2023-02-20T04:58:27;5.90;99.90
5415;DHT22;2730;51.512;7.504;2023-02-20T05:00:54;5.90;99.90
5415;DHT22;2730;51.512;7.504;2023-02-20T05:03:20;5.80;99.90
5415;DHT22;2730;51.512;7.504;2023-02-20T05:05:47;5.90;99.90
5415;DHT22;2730;51.512;7.504;2023-02-20T05:08:14;6.00;99.90
5415;DHT22;2730;51.512;7.504;2023-02-20T05:10:41;6.00;99.90
5415;DHT22;2730;51.512;7.504;2023-02-20T05:13:07;6.00;99.90
5415;DHT22;2730;51.512;7.504;2023-02-20T05:15:35;6.00;99.90
5415;DHT22;2730;51.512;7.504;2023-02-20T05:18:02;6.00;99.90
5415;DHT22;2730;51.512;7.504;2023-02-20T05:20:29;6.00;99.90
5415;DHT22;2730;51.512;7.504;2023-02-20T05:23:14;6.00;99.90
5415;DHT22;2730;51.512;7.504;2023-02-20T05:25:40;6.10;99.90
5415;DHT22;2730;51.512;7.504;2023-02-20T05:28:07;6.10;99.90
5415;DHT22;2730;51.512;7.504;2023-02-20T05:30:36;6.00;99.90
5415;DHT22;2730;51.512;7.504;2023-02-20T05:33:02;6.10;99.90
5415;DHT22;2730;51.512;7.504;2023-02-20T05:35:29;6.10;99.90
5415;DHT22;2730;51.512;7.504;2023-02-20T05:37:57;6.20;99.90
5415;DHT22;2730;51.512;7.504;2023-02-20T05:40:24;6.20;99.90
5415;DHT22;2730;51.512;7.504;2023-02-20T05:42:50;6.20;99.90
5415;DHT22;2730;51.512;7.504;2023-02-20T05:45:17;6.20;99.90
5415;DHT22;2730;51.512;7.504;2023-02-20T05:47:45;6.20;99.90
5415;DHT22;2730;51.512;7.504;2023-02-20T05:50:12;6.10;99.90
5415;DHT22;2730;51.512;7.504;2023-02-20T05:52:39;6.20;99.90
5415;DHT22;2730;51.512;7.504;2023-02-20T05:55:06;6.10;99.90
5415;DHT22;2730;51.512;7.504;2023-02-20T05:57:33;6.10;99.90
5415;DHT22;2730;51.512;7.504;2023-02-20T06:00:00;6.00;99.90
5415;DHT22;2730;51.512;7.504;2023-02-20T06:02:30;6.10;99.90
5415;DHT22;2730;51.512;7.504;2023-02-20T06:04:59;6.10;99.90
5415;DHT22;2730;51.512;7.504;2023-02-20T06:07:26;6.10;99.90
5415;DHT22;2730;51.512;7.504;2023-02-20T06:09:53;6.20;99.90
5415;DHT22;2730;51.512;7.504;2023-02-20T06:12:20;6.10;99.90
5415;DHT22;2730;51.512;7.504;2023-02-20T06:14:46;6.10;99.90
5415;DHT22;2730;51.512;7.504;2023-02-20T06:17:13;6.10;99.90
5415;DHT22;2730;51.512;7.504;2023-02-20T06:19:40;6.10;99.90
5415;DHT22;2730;51.512;7.504;2023-02-20T06:22:08;6.10;99.90
5415;DHT22;2730;51.512;7.504;2023-02-20T06:24:35;6.10;99.90
5415;DHT22;2730;51.512;7.504;2023-02-20T06:27:02;6.10;99.90
5415;DHT22;2730;51.512;7.504;2023-02-20T06:29:29;6.00;99.90
5415;DHT22;2730;51.512;7.504;2023-02-20T06:31:57;6.10;99.90
5415;DHT22;2730;51.512;7.504;2023-02-20T06:34:23;6.10;99.90
5415;DHT22;2730;51.512;7.504;2023-02-20T06:36:55;6.10;99.90
5415;DHT22;2730;51.512;7.504;2023-02-20T06:39:24;6.10;99.90
5415;DHT22;2730;51.512;7.504;2023-02-20T06:41:50;6.10;99.90
5415;DHT22;2730;51.512;7.504;2023-02-20T06:44:17;6.20;99.90
5415;DHT22;2730;51.512;7.504;2023-02-20T06:46:44;6.10;99.90
5415;DHT22;2730;51.512;7.504;2023-02-20T06:49:11;6.20;99.90
5415;DHT22;2730;51.512;7.504;2023-02-20T06:51:38;6.20;99.90
5415;DHT22;2730;51.512;7.504;2023-02-20T06:54:05;6.30;99.90
5415;DHT22;2730;51.512;7.504;2023-02-20T06:56:35;6.30;99.90
5415;DHT22;2730;51.512;7.504;2023-02-20T06:59:03;6.40;99.90
5415;DHT22;2730;51.512;7.504;2023-02-20T07:01:37;6.40;99.90
5415;DHT22;2730;51.512;7.504;2023-02-20T07:04:05;6.40;99.90
5415;DHT22;2730;51.512;7.504;2023-02-20T07:06:32;6.40;99.90
5415;DHT22;2730;51.512;7.504;2023-02-20T07:08:58;6.40;99.90
5415;DHT22;2730;51.512;7.504;2023-02-20T07:11:25;6.30;99.90
5415;DHT22;2730;51.512;7.504;2023-02-20T07:13:53;6.30;99.90
5415;DHT22;2730;51.512;7.504;2023-02-20T07:16:22;6.20;99.90
5415;DHT22;2730;51.512;7.504;2023-02-20T07:18:49;6.20;99.90
5415;DHT22;2730;51.512;7.504;2023-02-20T07:21:16;6.20;99.90
5415;DHT22;2730;51.512;7.504;2023-02-20T07:23:43;6.20;99.90
5415;DHT22;2730;51.512;7.504;2023-02-20T07:26:16;6.30;99.90
5415;DHT22;2730;51.512;7.504;2023-02-20T07:28:43;6.30;99.90
5415;DHT22;2730;51.512;7.504;2023-02-20T07:31:11;6.30;99.90
5415;DHT22;2730;51.512;7.504;2023-02-20T07:33:38;6.20;99.90
5415;DHT22;2730;51.512;7.504;2023-02-20T07:36:07;6.30;99.90
5415;DHT22;2730;51.512;7.504;2023-02-20T07:38:34;6.20;99.90
5415;DHT22;2730;51.512;7.504;2023-02-20T07:41:01;6.20;99.90
5415;DHT22;2730;51.512;7.504;2023-02-20T07:43:28;6.20;99.90
5415;DHT22;2730;51.512;7.504;2023-02-20T07:45:55;6.20;99.90
5415;DHT22;2730;51.512;7.504;2023-02-20T07:48:23;6.30;99.90
5415;DHT22;2730;51.512;7.504;2023-02-20T07:50:49;6.30;99.90
5415;DHT22;2730;51.512;7.504;2023-02-20T07:53:19;6.30;99.90
5415;DHT22;2730;51.512;7.504;2023-02-20T07:55:46;6.30;99.90
5415;DHT22;2730;51.512;7.504;2023-02-20T07:58:13;6.40;99.90
5415;DHT22;2730;51.512;7.504;2023-02-20T08:00:39;6.40;99.90
5415;DHT22;2730;51.512;7.504;2023-02-20T08:03:06;6.40;99.90
5415;DHT22;2730;51.512;7.504;2023-02-20T08:05:34;6.40;99.90
5415;DHT22;2730;51.512;7.504;2023-02-20T08:08:01;6.50;99.90
5415;DHT22;2730;51.512;7.504;2023-02-20T08:10:28;6.60;99.90
5415;DHT22;2730;51.512;7.504;2023-02-20T08:12:55;6.70;99.90
5415;DHT22;2730;51.512;7.504;2023-02-20T08:15:22;6.60;99.90
5415;DHT22;2730;51.512;7.504;2023-02-20T08:17:49;6.60;99.90
5415;DHT22;2730;51.512;7.504;2023-02-20T08:20:17;6.70;99.90
5415;DHT22;2730;51.512;7.504;2023-02-20T08:22:47;6.80;99.90
5415;DHT22;2730;51.512;7.504;2023-02-20T08:25:15;6.70;99.90
5415;DHT22;2730;51.512;7.504;2023-02-20T08:27:43;6.80;99.90
5415;DHT22;2730;51.512;7.504;2023-02-20T08:30:11;6.70;99.90
5415;DHT22;2730;51.512;7.504;2023-02-20T08:32:39;6.80;99.90
5415;DHT22;2730;51.512;7.504;2023-02-20T08:35:06;6.80;99.90
5415;DHT22;2730;51.512;7.504;2023-02-20T08:37:33;6.80;99.90
5415;DHT22;2730;51.512;7.504;2023-02-20T08:40:01;6.90;99.90
5415;DHT22;2730;51.512;7.504;2023-02-20T08:42:31;6.80;99.90
5415;DHT22;2730;51.512;7.504;2023-02-20T08:44:58;6.70;99.90
5415;DHT22;2730;51.512;7.504;2023-02-20T08:47:25;6.70;99.90
5415;DHT22;2730;51.512;7.504;2023-02-20T08:49:52;6.70;99.90
5415;DHT22;2730;51.512;7.504;2023-02-20T08:52:19;6.80;99.90
5415;DHT22;2730;51.512;7.504;2023-02-20T08:54:46;6.90;99.90
5415;DHT22;2730;51.512;7.504;2023-02-20T08:57:16;7.00;99.90
5415;DHT22;2730;51.512;7.504;2023-02-20T08:59:43;7.10;99.90
5415;DHT22;2730;51.512;7.504;2023-02-20T09:02:15;7.10;99.90
5415;DHT22;2730;51.512;7.504;2023-02-20T09:04:42;7.10;99.90
5415;DHT22;2730;51.512;7.504;2023-02-20T09:07:10;7.00;99.90
5415;DHT22;2730;51.512;7.504;2023-02-20T09:09:36;7.00;99.90
5415;DHT22;2730;51.512;7.504;2023-02-20T09:12:04;7.10;99.90
5415;DHT22;2730;51.512;7.504;2023-02-20T09:14:32;7.10;99.90
5415;DHT22;2730;51.512;7.504;2023-02-20T09:16:59;7.10;99.90
5415;DHT22;2730;51.512;7.504;2023-02-20T09:19:26;7.10;99.90
5415;DHT22;2730;51.512;7.504;2023-02-20T09:21:52;7.10;99.90
5415;DHT22;2730;51.512;7.504;2023-02-20T09:24:19;7.10;99.90
5415;DHT22;2730;51.512;7.504;2023-02-20T09:26:46;7.10;99.90
5415;DHT22;2730;51.512;7.504;2023-02-20T09:29:13;7.20;99.90
5415;DHT22;2730;51.512;7.504;2023-02-20T09:31:41;7.20;99.90
5415;DHT22;2730;51.512;7.504;2023-02-20T09:34:08;7.20;99.90
5415;DHT22;2730;51.512;7.504;2023-02-20T09:36:34;7.10;99.90
5415;DHT22;2730;51.512;7.504;2023-02-20T09:39:01;7.00;99.90
5415;DHT22;2730;51.512;7.504;2023-02-20T09:41:37;7.00;99.90
5415;DHT22;2730;51.512;7.504;2023-02-20T09:44:11;6.90;99.90
5415;DHT22;2730;51.512;7.504;2023-02-20T09:46:43;6.90;99.90
5415;DHT22;2730;51.512;7.504;2023-02-20T09:49:13;7.00;99.90
5415;DHT22;2730;51.512;7.504;2023-02-20T09:51:43;7.00;99.90
5415;DHT22;2730;51.512;7.504;2023-02-20T09:54:13;7.00;99.90
5415;DHT22;2730;51.512;7.504;2023-02-20T09:56:43;7.00;99.90
5415;DHT22;2730;51.512;7.504;2023-02-20T09:59:15;7.00;99.90
5415;DHT22;2730;51.512;7.504;2023-02-20T10:01:50;6.90;99.90
5415;DHT22;2730;51.512;7.504;2023-02-20T10:04:20;7.00;99.90
5415;DHT22;2730;51.512;7.504;2023-02-20T10:06:50;7.10;99.90
5415;DHT22;2730;51.512;7.504;2023-02-20T10:09:18;7.20;99.90
5415;DHT22;2730;51.512;7.504;2023-02-20T10:11:53;7.30;99.90
5415;DHT22;2730;51.512;7.504;2023-02-20T10:14:33;7.30;99.90
5415;DHT22;2730;51.512;7.504;2023-02-20T10:17:12;7.30;99.90
5415;DHT22;2730;51.512;7.504;2023-02-20T10:19:48;7.40;99.90
5415;DHT22;2730;51.512;7.504;2023-02-20T10:22:19;7.50;99.90
5415;DHT22;2730;51.512;7.504;2023-02-20T10:25:04;7.50;99.90
5415;DHT22;2730;51.512;7.504;2023-02-20T10:27:42;7.60;99.90
5415;DHT22;2730;51.512;7.504;2023-02-20T10:30:17;7.60;99.90
5415;DHT22;2730;51.512;7.504;2023-02-20T10:32:51;7.70;99.90
5415;DHT22;2730;51.512;7.504;2023-02-20T10:35:23;7.70;99.90
5415;DHT22;2730;51.512;7.504;2023-02-20T10:37:54;7.70;99.90
5415;DHT22;2730;51.512;7.504;2023-02-20T10:40:25;7.70;99.90
5415;DHT22;2730;51.512;7.504;2023-02-20T10:43:00;7.70;99.90
5415;DHT22;2730;51.512;7.504;2023-02-20T10:45:35;7.70;99.90
5415;DHT22;2730;51.512;7.504;2023-02-20T10:48:07;7.70;99.90
5415;DHT22;2730;51.512;7.504;2023-02-20T10:50:38;7.70;99.90
5415;DHT22;2730;51.512;7.504;2023-02-20T10:53:15;7.70;99.90
5415;DHT22;2730;51.512;7.504;2023-02-20T10:55:49;7.60;99.90
5415;DHT22;2730;51.512;7.504;2023-02-20T10:58:21;7.70;99.90
5415;DHT22;2730;51.512;7.504;2023-02-20T11:00:53;7.70;99.90
5415;DHT22;2730;51.512;7.504;2023-02-20T11:03:25;7.60;99.90
5415;DHT22;2730;51.512;7.504;2023-02-20T11:05:55;7.80;99.90
5415;DHT22;2730;51.512;7.504;2023-02-20T11:08:22;7.90;99.90
5415;DHT22;2730;51.512;7.504;2023-02-20T11:10:53;7.90;99.90
5415;DHT22;2730;51.512;7.504;2023-02-20T11:13:23;8.00;99.90
5415;DHT22;2730;51.512;7.504;2023-02-20T11:15:52;8.10;99.90
5415;DHT22;2730;51.512;7.504;2023-02-20T11:18:25;8.10;99.90
5415;DHT22;2730;51.512;7.504;2023-02-20T11:20:54;8.30;99.90
5415;DHT22;2730;51.512;7.504;2023-02-20T11:23:37;8.30;99.90
5415;DHT22;2730;51.512;7.504;2023-02-20T11:26:29;8.40;99.90
5415;DHT22;2730;51.512;7.504;2023-02-20T11:29:01;8.40;99.90
5415;DHT22;2730;51.512;7.504;2023-02-20T11:31:29;8.40;99.90
5415;DHT22;2730;51.512;7.504;2023-02-20T11:34:01;8.50;99.90
5415;DHT22;2730;51.512;7.504;2023-02-20T11:36:33;8.60;99.90
5415;DHT22;2730;51.512;7.504;2023-02-20T11:39:03;8.60;99.90
5415;DHT22;2730;51.512;7.504;2023-02-20T11:41:39;8.60;99.90
5415;DHT22;2730;51.512;7.504;2023-02-20T11:44:19;8.70;99.90
5415;DHT22;2730;51.512;7.504;2023-02-20T11:47:07;8.60;99.90
5415;DHT22;2730;51.512;7.504;2023-02-20T11:49:35;8.50;99.90
5415;DHT22;2730;51.512;7.504;2023-02-20T11:52:07;8.40;99.90
5415;DHT22;2730;51.512;7.504;2023-02-20T11:54:35;8.30;99.90
5415;DHT22;2730;51.512;7.504;2023-02-20T11:57:04;8.30;99.90
5415;DHT22;2730;51.512;7.504;2023-02-20T11:59:34;8.20;99.90
5415;DHT22;2730;51.512;7.504;2023-02-20T12:02:22;8.20;99.90
5415;DHT22;2730;51.512;7.504;2023-02-20T12:05:10;8.30;99.90
5415;DHT22;2730;51.512;7.504;2023-02-20T12:07:40;8.30;99.90
5415;DHT22;2730;51.512;7.504;2023-02-20T12:10:30;8.30;99.90
5415;DHT22;2730;51.512;7.504;2023-02-20T12:12:59;8.30;99.90
5415;DHT22;2730;51.512;7.504;2023-02-20T12:15:27;8.40;99.90
5415;DHT22;2730;51.512;7.504;2023-02-20T12:18:23;8.40;99.90
5415;DHT22;2730;51.512;7.504;2023-02-20T12:20:57;8.20;99.90
5415;DHT22;2730;51.512;7.504;2023-02-20T12:23:35;8.30;99.90
5415;DHT22;2730;51.512;7.504;2023-02-20T12:26:16;8.30;99.90
5415;DHT22;2730;51.512;7.504;2023-02-20T12:28:52;8.30;99.90
5415;DHT22;2730;51.512;7.504;2023-02-20T12:31:32;8.30;99.90
5415;DHT22;2730;51.512;7.504;2023-02-20T12:34:11;8.20;99.90
5415;DHT22;2730;51.512;7.504;2023-02-20T12:36:43;8.30;99.90
5415;DHT22;2730;51.512;7.504;2023-02-20T12:39:21;8.30;99.90
5415;DHT22;2730;51.512;7.504;2023-02-20T12:42:04;8.40;99.90
5415;DHT22;2730;51.512;7.504;2023-02-20T12:44:48;8.40;99.90
5415;DHT22;2730;51.512;7.504;2023-02-20T12:47:24;8.40;99.90
5415;DHT22;2730;51.512;7.504;2023-02-20T12:50:03;8.40;99.90
5415;DHT22;2730;51.512;7.504;2023-02-20T12:52:57;8.50;99.90
5415;DHT22;2730;51.512;7.504;2023-02-20T12:55:31;8.40;99.90
5415;DHT22;2730;51.512;7.504;2023-02-20T12:58:14;8.50;99.90
5415;DHT22;2730;51.512;7.504;2023-02-20T13:00:46;8.50;99.90
5415;DHT22;2730;51.512;7.504;2023-02-20T13:03:17;8.50;99.90
5415;DHT22;2730;51.512;7.504;2023-02-20T13:05:47;8.50;99.90
5415;DHT22;2730;51.512;7.504;2023-02-20T13:08:19;8.50;99.90
5415;DHT22;2730;51.512;7.504;2023-02-20T13:10:52;8.50;99.90
5415;DHT22;2730;51.512;7.504;2023-02-20T13:13:21;8.50;99.90
5415;DHT22;2730;51.512;7.504;2023-02-20T13:15:55;8.40;99.90
5415;DHT22;2730;51.512;7.504;2023-02-20T13:18:28;8.30;99.90
5415;DHT22;2730;51.512;7.504;2023-02-20T13:21:01;8.40;99.90
5415;DHT22;2730;51.512;7.504;2023-02-20T13:23:32;8.40;99.90
5415;DHT22;2730;51.512;7.504;2023-02-20T13:25:59;8.50;99.90
5415;DHT22;2730;51.512;7.504;2023-02-20T13:28:33;8.50;99.90
5415;DHT22;2730;51.512;7.504;2023-02-20T13:31:16;8.50;99.90
5415;DHT22;2730;51.512;7.504;2023-02-20T13:33:45;8.40;99.90
5415;DHT22;2730;51.512;7.504;2023-02-20T13:39:38;8.50;99.90
5415;DHT22;2730;51.512;7.504;2023-02-20T13:45:36;8.30;99.90
5415;DHT22;2730;51.512;7.504;2023-02-20T13:48:22;8.20;99.90
5415;DHT22;2730;51.512;7.504;2023-02-20T13:51:29;8.20;99.90
5415;DHT22;2730;51.512;7.504;2023-02-20T13:53:59;8.20;99.90
5415;DHT22;2730;51.512;7.504;2023-02-20T13:56:43;8.20;99.90
5415;DHT22;2730;51.512;7.504;2023-02-20T13:59:13;8.20;99.90
5415;DHT22;2730;51.512;7.504;2023-02-20T14:02:03;8.30;99.90
5415;DHT22;2730;51.512;7.504;2023-02-20T14:04:31;8.20;99.90
5415;DHT22;2730;51.512;7.504;2023-02-20T14:06:58;8.20;99.90
5415;DHT22;2730;51.512;7.504;2023-02-20T14:09:27;8.20;99.90
5415;DHT22;2730;51.512;7.504;2023-02-20T14:12:05;8.20;99.90
5415;DHT22;2730;51.512;7.504;2023-02-20T14:14:36;8.20;99.90
5415;DHT22;2730;51.512;7.504;2023-02-20T14:17:05;8.20;99.90
5415;DHT22;2730;51.512;7.504;2023-02-20T14:19:37;8.20;99.90
5415;DHT22;2730;51.512;7.504;2023-02-20T14:22:30;8.20;99.90
5415;DHT22;2730;51.512;7.504;2023-02-20T14:27:43;8.10;99.90
5415;DHT22;2730;51.512;7.504;2023-02-20T14:30:13;8.10;99.90
5415;DHT22;2730;51.512;7.504;2023-02-20T14:32:42;8.10;99.90
5415;DHT22;2730;51.512;7.504;2023-02-20T14:35:24;8.10;99.90
5415;DHT22;2730;51.512;7.504;2023-02-20T14:38:01;8.10;99.90
5415;DHT22;2730;51.512;7.504;2023-02-20T14:40:34;8.10;99.90
5415;DHT22;2730;51.512;7.504;2023-02-20T14:43:11;8.10;99.90
5415;DHT22;2730;51.512;7.504;2023-02-20T14:45:40;8.00;99.90
5415;DHT22;2730;51.512;7.504;2023-02-20T14:48:21;8.10;99.90
5415;DHT22;2730;51.512;7.504;2023-02-20T14:51:02;8.00;99.90
5415;DHT22;2730;51.512;7.504;2023-02-20T14:53:29;8.10;99.90
5415;DHT22;2730;51.512;7.504;2023-02-20T14:55:56;8.10;99.90
5415;DHT22;2730;51.512;7.504;2023-02-20T14:58:24;8.10;99.90
5415;DHT22;2730;51.512;7.504;2023-02-20T15:00:52;8.00;99.90
5415;DHT22;2730;51.512;7.504;2023-02-20T15:03:22;8.00;99.90
5415;DHT22;2730;51.512;7.504;2023-02-20T15:05:50;8.00;99.90
5415;DHT22;2730;51.512;7.504;2023-02-20T15:08:22;8.00;99.90
5415;DHT22;2730;51.512;7.504;2023-02-20T15:10:49;8.00;99.90
5415;DHT22;2730;51.512;7.504;2023-02-20T15:13:19;8.00;99.90
5415;DHT22;2730;51.512;7.504;2023-02-20T15:15:50;7.90;99.90
5415;DHT22;2730;51.512;7.504;2023-02-20T15:18:31;7.90;99.90
5415;DHT22;2730;51.512;7.504;2023-02-20T15:20:58;7.80;99.90
5415;DHT22;2730;51.512;7.504;2023-02-20T15:23:28;7.90;99.90
5415;DHT22;2730;51.512;7.504;2023-02-20T15:25:56;7.90;99.90
5415;DHT22;2730;51.512;7.504;2023-02-20T15:28:27;7.90;99.90
5415;DHT22;2730;51.512;7.504;2023-02-20T15:31:06;7.90;99.90
5415;DHT22;2730;51.512;7.504;2023-02-20T15:33:42;7.80;99.90
5415;DHT22;2730;51.512;7.504;2023-02-20T15:36:13;7.80;99.90
5415;DHT22;2730;51.512;7.504;2023-02-20T15:38:42;7.80;99.90
5415;DHT22;2730;51.512;7.504;2023-02-20T15:41:09;7.80;99.90
5415;DHT22;2730;51.512;7.504;2023-02-20T15:43:36;7.90;99.90
5415;DHT22;2730;51.512;7.504;2023-02-20T15:46:04;7.90;99.90
5415;DHT22;2730;51.512;7.504;2023-02-20T15:48:31;7.90;99.90
5415;DHT22;2730;51.512;7.504;2023-02-20T15:50:58;7.90;99.90
5415;DHT22;2730;51.512;7.504;2023-02-20T15:53:27;7.90;99.90
5415;DHT22;2730;51.512;7.504;2023-02-20T15:55:56;7.90;99.90
5415;DHT22;2730;51.512;7.504;2023-02-20T15:58:25;8.00;99.90
5415;DHT22;2730;51.512;7.504;2023-02-20T16:00:53;7.90;99.90
5415;DHT22;2730;51.512;7.504;2023-02-20T16:03:22;8.00;99.90
5415;DHT22;2730;51.512;7.504;2023-02-20T16:05:49;8.00;99.90
5415;DHT22;2730;51.512;7.504;2023-02-20T16:08:16;8.00;99.90
5415;DHT22;2730;51.512;7.504;2023-02-20T16:10:43;8.00;99.90
5415;DHT22;2730;51.512;7.504;2023-02-20T16:13:21;8.00;99.90
5415;DHT22;2730;51.512;7.504;2023-02-20T16:15:49;8.00;99.90
5415;DHT22;2730;51.512;7.504;2023-02-20T16:18:15;8.00;99.90
5415;DHT22;2730;51.512;7.504;2023-02-20T16:20:44;8.00;99.90
5415;DHT22;2730;51.512;7.504;2023-02-20T16:23:10;7.90;99.90
5415;DHT22;2730;51.512;7.504;2023-02-20T16:25:37;7.90;99.90
5415;DHT22;2730;51.512;7.504;2023-02-20T16:28:06;8.00;99.90
5415;DHT22;2730;51.512;7.504;2023-02-20T16:30:35;8.00;99.90
5415;DHT22;2730;51.512;7.504;2023-02-20T16:33:11;7.90;99.90
5415;DHT22;2730;51.512;7.504;2023-02-20T16:35:39;7.90;99.90
5415;DHT22;2730;51.512;7.504;2023-02-20T16:38:07;8.00;99.90
5415;DHT22;2730;51.512;7.504;2023-02-20T16:40:34;7.90;99.90
5415;DHT22;2730;51.512;7.504;2023-02-20T16:43:01;7.90;99.90
5415;DHT22;2730;51.512;7.504;2023-02-20T16:45:28;7.90;99.90
5415;DHT22;2730;51.512;7.504;2023-02-20T16:47:55;7.90;99.90
5415;DHT22;2730;51.512;7.504;2023-02-20T16:50:24;7.90;99.90
5415;DHT22;2730;51.512;7.504;2023-02-20T16:52:54;7.90;99.90
5415;DHT22;2730;51.512;7.504;2023-02-20T16:55:25;7.90;99.90